sensor_id;sensor_type;location;lat;lon;timestamp;P1;durP1;ratioP1;P2;durP2;ratioP2
71959;SDS011;59832;51.146;14.024;2024-01-07T00:02:08;47.85;;;23.17;;
71959;SDS011;59832;51.146;14.024;2024-01-07T00:04:34;48.90;;;22.33;;
71959;SDS011;59832;51.146;14.024;2024-01-07T00:07:01;48.00;;;22.35;;
71959;SDS011;59832;51.146;14.024;2024-01-07T00:09:27;47.30;;;22.50;;
71959;SDS011;59832;51.146;14.024;2024-01-07T00:11:54;44.00;;;23.90;;
71959;SDS011;59832;51.146;14.024;2024-01-07T00:14:21;49.22;;;22.45;;
71959;SDS011;59832;51.146;14.024;2024-01-07T00:16:47;47.65;;;22.80;;
71959;SDS011;59832;51.146;14.024;2024-01-07T00:19:14;47.95;;;22.13;;
71959;SDS011;59832;51.146;14.024;2024-01-07T00:21:40;46.88;;;21.38;;
71959;SDS011;59832;51.146;14.024;2024-01-07T00:24:07;50.45;;;22.30;;
71959;SDS011;59832;51.146;14.024;2024-01-07T00:26:33;49.10;;;22.55;;
71959;SDS011;59832;51.146;14.024;2024-01-07T00:29:00;47.28;;;22.45;;
71959;SDS011;59832;51.146;14.024;2024-01-07T00:31:26;47.58;;;21.80;;
71959;SDS011;59832;51.146;14.024;2024-01-07T00:33:53;52.53;;;22.13;;
71959;SDS011;59832;51.146;14.024;2024-01-07T00:36:20;49.60;;;22.00;;
71959;SDS011;59832;51.146;14.024;2024-01-07T00:38:46;42.78;;;20.23;;
71959;SDS011;59832;51.146;14.024;2024-01-07T00:41:13;43.10;;;19.73;;
71959;SDS011;59832;51.146;14.024;2024-01-07T00:43:40;44.53;;;20.10;;
71959;SDS011;59832;51.146;14.024;2024-01-07T00:46:07;47.85;;;21.30;;
71959;SDS011;59832;51.146;14.024;2024-01-07T00:48:33;48.87;;;22.43;;
71959;SDS011;59832;51.146;14.024;2024-01-07T00:51:00;47.08;;;21.70;;
71959;SDS011;59832;51.146;14.024;2024-01-07T00:53:27;43.97;;;20.30;;
71959;SDS011;59832;51.146;14.024;2024-01-07T00:55:53;45.58;;;20.20;;
71959;SDS011;59832;51.146;14.024;2024-01-07T00:58:19;49.30;;;23.30;;
71959;SDS011;59832;51.146;14.024;2024-01-07T01:00:46;48.08;;;22.42;;
71959;SDS011;59832;51.146;14.024;2024-01-07T01:03:12;47.00;;;21.60;;
71959;SDS011;59832;51.146;14.024;2024-01-07T01:05:39;51.97;;;23.00;;
71959;SDS011;59832;51.146;14.024;2024-01-07T01:08:06;50.58;;;23.15;;
71959;SDS011;59832;51.146;14.024;2024-01-07T01:10:32;47.90;;;21.50;;
71959;SDS011;59832;51.146;14.024;2024-01-07T01:12:59;48.72;;;23.35;;
71959;SDS011;59832;51.146;14.024;2024-01-07T01:15:25;53.33;;;24.13;;
71959;SDS011;59832;51.146;14.024;2024-01-07T01:17:52;52.92;;;25.13;;
71959;SDS011;59832;51.146;14.024;2024-01-07T01:20:18;50.60;;;24.42;;
71959;SDS011;59832;51.146;14.024;2024-01-07T01:22:45;46.45;;;22.38;;
71959;SDS011;59832;51.146;14.024;2024-01-07T01:25:11;49.17;;;21.83;;
71959;SDS011;59832;51.146;14.024;2024-01-07T01:27:38;43.43;;;20.57;;
71959;SDS011;59832;51.146;14.024;2024-01-07T01:30:05;43.42;;;20.30;;
71959;SDS011;59832;51.146;14.024;2024-01-07T01:32:32;47.05;;;21.50;;
71959;SDS011;59832;51.146;14.024;2024-01-07T01:34:58;42.27;;;20.23;;
71959;SDS011;59832;51.146;14.024;2024-01-07T01:37:25;41.93;;;20.33;;
71959;SDS011;59832;51.146;14.024;2024-01-07T01:39:51;42.95;;;20.80;;
71959;SDS011;59832;51.146;14.024;2024-01-07T01:42:18;39.28;;;19.20;;
71959;SDS011;59832;51.146;14.024;2024-01-07T01:44:46;40.35;;;20.40;;
71959;SDS011;59832;51.146;14.024;2024-01-07T01:47:12;47.00;;;20.95;;
71959;SDS011;59832;51.146;14.024;2024-01-07T01:49:39;44.28;;;20.17;;
71959;SDS011;59832;51.146;14.024;2024-01-07T01:52:06;45.42;;;19.45;;
71959;SDS011;59832;51.146;14.024;2024-01-07T01:54:33;35.97;;;18.48;;
71959;SDS011;59832;51.146;14.024;2024-01-07T01:57:00;37.58;;;17.85;;
71959;SDS011;59832;51.146;14.024;2024-01-07T01:59:27;37.65;;;18.17;;
71959;SDS011;59832;51.146;14.024;2024-01-07T02:01:54;34.35;;;16.75;;
71959;SDS011;59832;51.146;14.024;2024-01-07T02:04:21;34.92;;;17.60;;
71959;SDS011;59832;51.146;14.024;2024-01-07T02:06:48;37.25;;;18.15;;
71959;SDS011;59832;51.146;14.024;2024-01-07T02:09:15;37.47;;;17.70;;
71959;SDS011;59832;51.146;14.024;2024-01-07T02:11:42;38.10;;;19.15;;
71959;SDS011;59832;51.146;14.024;2024-01-07T02:14:08;38.17;;;19.52;;
71959;SDS011;59832;51.146;14.024;2024-01-07T02:16:35;40.53;;;19.50;;
71959;SDS011;59832;51.146;14.024;2024-01-07T02:19:02;36.57;;;19.37;;
71959;SDS011;59832;51.146;14.024;2024-01-07T02:21:28;36.90;;;19.63;;
71959;SDS011;59832;51.146;14.024;2024-01-07T02:23:55;37.47;;;18.33;;
71959;SDS011;59832;51.146;14.024;2024-01-07T02:26:22;36.75;;;18.55;;
71959;SDS011;59832;51.146;14.024;2024-01-07T02:28:48;37.45;;;17.85;;
71959;SDS011;59832;51.146;14.024;2024-01-07T02:31:15;41.75;;;18.45;;
71959;SDS011;59832;51.146;14.024;2024-01-07T02:33:42;37.15;;;16.95;;
71959;SDS011;59832;51.146;14.024;2024-01-07T02:36:08;32.67;;;16.40;;
71959;SDS011;59832;51.146;14.024;2024-01-07T02:38:35;33.65;;;15.70;;
71959;SDS011;59832;51.146;14.024;2024-01-07T02:41:01;34.00;;;16.15;;
71959;SDS011;59832;51.146;14.024;2024-01-07T02:43:28;30.83;;;16.47;;
71959;SDS011;59832;51.146;14.024;2024-01-07T02:45:54;28.50;;;16.27;;
71959;SDS011;59832;51.146;14.024;2024-01-07T02:48:21;33.75;;;16.42;;
71959;SDS011;59832;51.146;14.024;2024-01-07T02:50:47;38.75;;;17.10;;
71959;SDS011;59832;51.146;14.024;2024-01-07T02:53:14;31.60;;;15.90;;
71959;SDS011;59832;51.146;14.024;2024-01-07T02:55:40;31.95;;;16.02;;
71959;SDS011;59832;51.146;14.024;2024-01-07T02:58:07;31.67;;;16.73;;
71959;SDS011;59832;51.146;14.024;2024-01-07T03:00:33;33.60;;;16.13;;
71959;SDS011;59832;51.146;14.024;2024-01-07T03:03:00;36.43;;;17.10;;
71959;SDS011;59832;51.146;14.024;2024-01-07T03:05:26;36.67;;;16.17;;
71959;SDS011;59832;51.146;14.024;2024-01-07T03:07:55;30.10;;;15.82;;
71959;SDS011;59832;51.146;14.024;2024-01-07T03:10:22;32.75;;;16.55;;
71959;SDS011;59832;51.146;14.024;2024-01-07T03:12:48;33.08;;;16.67;;
71959;SDS011;59832;51.146;14.024;2024-01-07T03:15:15;31.90;;;16.60;;
71959;SDS011;59832;51.146;14.024;2024-01-07T03:17:41;30.67;;;16.73;;
71959;SDS011;59832;51.146;14.024;2024-01-07T03:20:09;33.47;;;16.25;;
71959;SDS011;59832;51.146;14.024;2024-01-07T03:22:36;38.95;;;16.98;;
71959;SDS011;59832;51.146;14.024;2024-01-07T03:25:02;31.83;;;17.20;;
71959;SDS011;59832;51.146;14.024;2024-01-07T03:27:30;35.75;;;17.73;;
71959;SDS011;59832;51.146;14.024;2024-01-07T03:29:56;36.53;;;17.37;;
71959;SDS011;59832;51.146;14.024;2024-01-07T03:32:23;34.58;;;16.85;;
71959;SDS011;59832;51.146;14.024;2024-01-07T03:34:49;32.88;;;16.27;;
71959;SDS011;59832;51.146;14.024;2024-01-07T03:37:16;32.67;;;15.57;;
71959;SDS011;59832;51.146;14.024;2024-01-07T03:39:43;32.35;;;16.70;;
71959;SDS011;59832;51.146;14.024;2024-01-07T03:42:10;33.58;;;16.67;;
71959;SDS011;59832;51.146;14.024;2024-01-07T03:44:38;33.20;;;16.02;;
71959;SDS011;59832;51.146;14.024;2024-01-07T03:47:08;33.92;;;16.50;;
71959;SDS011;59832;51.146;14.024;2024-01-07T03:49:36;32.38;;;16.63;;
71959;SDS011;59832;51.146;14.024;2024-01-07T03:52:04;33.95;;;17.35;;
71959;SDS011;59832;51.146;14.024;2024-01-07T03:54:31;34.50;;;16.27;;
71959;SDS011;59832;51.146;14.024;2024-01-07T03:56:58;33.63;;;15.00;;
71959;SDS011;59832;51.146;14.024;2024-01-07T03:59:25;32.75;;;15.05;;
71959;SDS011;59832;51.146;14.024;2024-01-07T04:01:53;30.75;;;15.77;;
71959;SDS011;59832;51.146;14.024;2024-01-07T04:06:46;30.67;;;14.60;;
71959;SDS011;59832;51.146;14.024;2024-01-07T04:09:13;27.90;;;14.43;;
71959;SDS011;59832;51.146;14.024;2024-01-07T04:11:42;29.58;;;14.48;;
71959;SDS011;59832;51.146;14.024;2024-01-07T04:14:09;29.80;;;13.98;;
71959;SDS011;59832;51.146;14.024;2024-01-07T04:16:35;27.90;;;14.90;;
71959;SDS011;59832;51.146;14.024;2024-01-07T04:19:02;27.88;;;14.90;;
71959;SDS011;59832;51.146;14.024;2024-01-07T04:21:29;25.97;;;14.27;;
71959;SDS011;59832;51.146;14.024;2024-01-07T04:23:55;27.48;;;13.43;;
71959;SDS011;59832;51.146;14.024;2024-01-07T04:26:22;25.88;;;14.25;;
71959;SDS011;59832;51.146;14.024;2024-01-07T04:28:49;28.45;;;14.13;;
71959;SDS011;59832;51.146;14.024;2024-01-07T04:31:16;23.83;;;12.93;;
71959;SDS011;59832;51.146;14.024;2024-01-07T04:33:43;27.55;;;13.90;;
71959;SDS011;59832;51.146;14.024;2024-01-07T04:36:09;24.90;;;13.77;;
71959;SDS011;59832;51.146;14.024;2024-01-07T04:38:36;25.83;;;14.10;;
71959;SDS011;59832;51.146;14.024;2024-01-07T04:41:03;27.73;;;14.37;;
71959;SDS011;59832;51.146;14.024;2024-01-07T04:43:29;26.60;;;14.57;;
71959;SDS011;59832;51.146;14.024;2024-01-07T04:45:56;25.70;;;13.95;;
71959;SDS011;59832;51.146;14.024;2024-01-07T04:48:22;25.40;;;13.68;;
71959;SDS011;59832;51.146;14.024;2024-01-07T04:50:49;29.20;;;14.82;;
71959;SDS011;59832;51.146;14.024;2024-01-07T04:53:16;24.75;;;13.75;;
71959;SDS011;59832;51.146;14.024;2024-01-07T04:55:43;23.50;;;13.00;;
71959;SDS011;59832;51.146;14.024;2024-01-07T04:58:09;22.90;;;13.02;;
71959;SDS011;59832;51.146;14.024;2024-01-07T05:00:36;23.13;;;13.20;;
71959;SDS011;59832;51.146;14.024;2024-01-07T05:03:02;25.97;;;13.13;;
71959;SDS011;59832;51.146;14.024;2024-01-07T05:05:29;25.27;;;12.50;;
71959;SDS011;59832;51.146;14.024;2024-01-07T05:07:56;26.73;;;13.63;;
71959;SDS011;59832;51.146;14.024;2024-01-07T05:10:25;25.58;;;12.98;;
71959;SDS011;59832;51.146;14.024;2024-01-07T05:12:51;24.83;;;13.25;;
71959;SDS011;59832;51.146;14.024;2024-01-07T05:15:18;22.48;;;12.38;;
71959;SDS011;59832;51.146;14.024;2024-01-07T05:17:44;21.92;;;12.75;;
71959;SDS011;59832;51.146;14.024;2024-01-07T05:20:11;25.75;;;12.60;;
71959;SDS011;59832;51.146;14.024;2024-01-07T05:22:38;29.90;;;13.32;;
71959;SDS011;59832;51.146;14.024;2024-01-07T05:25:04;17.52;;;11.35;;
71959;SDS011;59832;51.146;14.024;2024-01-07T05:27:31;21.60;;;12.23;;
71959;SDS011;59832;51.146;14.024;2024-01-07T05:29:57;24.52;;;12.32;;
71959;SDS011;59832;51.146;14.024;2024-01-07T05:32:24;22.00;;;11.90;;
71959;SDS011;59832;51.146;14.024;2024-01-07T05:34:51;19.92;;;11.18;;
71959;SDS011;59832;51.146;14.024;2024-01-07T05:37:17;20.48;;;11.27;;
71959;SDS011;59832;51.146;14.024;2024-01-07T05:39:44;23.55;;;10.77;;
71959;SDS011;59832;51.146;14.024;2024-01-07T05:42:11;18.07;;;10.50;;
71959;SDS011;59832;51.146;14.024;2024-01-07T05:44:37;20.15;;;11.57;;
71959;SDS011;59832;51.146;14.024;2024-01-07T05:47:04;17.33;;;10.48;;
71959;SDS011;59832;51.146;14.024;2024-01-07T05:49:30;19.77;;;10.80;;
71959;SDS011;59832;51.146;14.024;2024-01-07T05:51:57;16.43;;;10.10;;
71959;SDS011;59832;51.146;14.024;2024-01-07T05:54:23;19.77;;;9.77;;
71959;SDS011;59832;51.146;14.024;2024-01-07T05:56:50;16.50;;;9.82;;
71959;SDS011;59832;51.146;14.024;2024-01-07T05:59:17;15.48;;;10.10;;
71959;SDS011;59832;51.146;14.024;2024-01-07T06:01:43;19.23;;;10.52;;
71959;SDS011;59832;51.146;14.024;2024-01-07T06:04:10;14.25;;;8.90;;
71959;SDS011;59832;51.146;14.024;2024-01-07T06:06:37;15.33;;;9.30;;
71959;SDS011;59832;51.146;14.024;2024-01-07T06:09:03;15.73;;;9.60;;
71959;SDS011;59832;51.146;14.024;2024-01-07T06:11:30;16.70;;;9.35;;
71959;SDS011;59832;51.146;14.024;2024-01-07T06:13:57;16.75;;;10.07;;
71959;SDS011;59832;51.146;14.024;2024-01-07T06:16:23;15.85;;;9.60;;
71959;SDS011;59832;51.146;14.024;2024-01-07T06:18:49;17.05;;;9.20;;
71959;SDS011;59832;51.146;14.024;2024-01-07T06:21:16;13.17;;;8.60;;
71959;SDS011;59832;51.146;14.024;2024-01-07T06:23:43;15.45;;;9.35;;
71959;SDS011;59832;51.146;14.024;2024-01-07T06:26:09;15.57;;;9.05;;
71959;SDS011;59832;51.146;14.024;2024-01-07T06:28:35;14.35;;;8.07;;
71959;SDS011;59832;51.146;14.024;2024-01-07T06:31:02;13.40;;;7.93;;
71959;SDS011;59832;51.146;14.024;2024-01-07T06:35:56;11.82;;;6.97;;
71959;SDS011;59832;51.146;14.024;2024-01-07T06:38:23;13.38;;;7.15;;
71959;SDS011;59832;51.146;14.024;2024-01-07T06:40:50;12.57;;;7.07;;
71959;SDS011;59832;51.146;14.024;2024-01-07T06:43:17;11.13;;;6.60;;
71959;SDS011;59832;51.146;14.024;2024-01-07T06:45:43;16.55;;;6.95;;
71959;SDS011;59832;51.146;14.024;2024-01-07T06:48:10;11.70;;;7.10;;
71959;SDS011;59832;51.146;14.024;2024-01-07T06:50:37;10.63;;;7.00;;
71959;SDS011;59832;51.146;14.024;2024-01-07T06:53:03;12.63;;;6.70;;
71959;SDS011;59832;51.146;14.024;2024-01-07T06:55:30;10.83;;;7.40;;
71959;SDS011;59832;51.146;14.024;2024-01-07T06:57:56;10.90;;;6.32;;
71959;SDS011;59832;51.146;14.024;2024-01-07T07:00:23;11.23;;;6.78;;
71959;SDS011;59832;51.146;14.024;2024-01-07T07:02:49;9.45;;;6.78;;
71959;SDS011;59832;51.146;14.024;2024-01-07T07:05:16;10.63;;;6.70;;
71959;SDS011;59832;51.146;14.024;2024-01-07T07:07:43;10.43;;;6.90;;
71959;SDS011;59832;51.146;14.024;2024-01-07T07:10:09;9.13;;;6.45;;
71959;SDS011;59832;51.146;14.024;2024-01-07T07:12:36;10.63;;;6.38;;
71959;SDS011;59832;51.146;14.024;2024-01-07T07:15:02;10.07;;;6.43;;
71959;SDS011;59832;51.146;14.024;2024-01-07T07:17:29;12.07;;;6.75;;
71959;SDS011;59832;51.146;14.024;2024-01-07T07:19:56;10.83;;;6.40;;
71959;SDS011;59832;51.146;14.024;2024-01-07T07:22:22;8.98;;;6.07;;
71959;SDS011;59832;51.146;14.024;2024-01-07T07:24:49;12.63;;;6.10;;
71959;SDS011;59832;51.146;14.024;2024-01-07T07:27:16;11.00;;;6.37;;
71959;SDS011;59832;51.146;14.024;2024-01-07T07:29:42;10.70;;;5.95;;
71959;SDS011;59832;51.146;14.024;2024-01-07T07:32:08;9.20;;;5.32;;
71959;SDS011;59832;51.146;14.024;2024-01-07T07:34:35;8.65;;;5.00;;
71959;SDS011;59832;51.146;14.024;2024-01-07T07:37:02;7.97;;;5.40;;
71959;SDS011;59832;51.146;14.024;2024-01-07T07:39:29;11.35;;;5.20;;
71959;SDS011;59832;51.146;14.024;2024-01-07T07:41:56;10.55;;;5.60;;
71959;SDS011;59832;51.146;14.024;2024-01-07T07:44:22;7.75;;;4.85;;
71959;SDS011;59832;51.146;14.024;2024-01-07T07:46:49;7.97;;;5.25;;
71959;SDS011;59832;51.146;14.024;2024-01-07T07:49:16;6.95;;;4.68;;
71959;SDS011;59832;51.146;14.024;2024-01-07T07:51:43;7.10;;;4.63;;
71959;SDS011;59832;51.146;14.024;2024-01-07T07:54:10;8.23;;;5.00;;
71959;SDS011;59832;51.146;14.024;2024-01-07T07:56:36;6.18;;;4.40;;
71959;SDS011;59832;51.146;14.024;2024-01-07T07:59:03;8.23;;;4.65;;
71959;SDS011;59832;51.146;14.024;2024-01-07T08:01:30;9.10;;;4.13;;
71959;SDS011;59832;51.146;14.024;2024-01-07T08:03:56;7.70;;;3.92;;
71959;SDS011;59832;51.146;14.024;2024-01-07T08:06:23;6.37;;;3.93;;
71959;SDS011;59832;51.146;14.024;2024-01-07T08:08:50;6.87;;;4.03;;
71959;SDS011;59832;51.146;14.024;2024-01-07T08:11:16;7.03;;;3.83;;
71959;SDS011;59832;51.146;14.024;2024-01-07T08:13:43;6.15;;;3.67;;
71959;SDS011;59832;51.146;14.024;2024-01-07T08:16:09;6.30;;;3.63;;
71959;SDS011;59832;51.146;14.024;2024-01-07T08:18:37;6.20;;;4.15;;
71959;SDS011;59832;51.146;14.024;2024-01-07T08:21:04;5.90;;;4.03;;
71959;SDS011;59832;51.146;14.024;2024-01-07T08:23:30;4.13;;;3.60;;
71959;SDS011;59832;51.146;14.024;2024-01-07T08:25:57;4.80;;;3.60;;
71959;SDS011;59832;51.146;14.024;2024-01-07T08:28:23;5.50;;;4.43;;
71959;SDS011;59832;51.146;14.024;2024-01-07T08:30:50;10.77;;;9.57;;
71959;SDS011;59832;51.146;14.024;2024-01-07T08:33:18;9.68;;;6.80;;
71959;SDS011;59832;51.146;14.024;2024-01-07T08:35:45;5.15;;;3.90;;
71959;SDS011;59832;51.146;14.024;2024-01-07T08:38:11;5.85;;;4.38;;
71959;SDS011;59832;51.146;14.024;2024-01-07T08:40:39;6.33;;;3.80;;
71959;SDS011;59832;51.146;14.024;2024-01-07T08:43:05;5.82;;;4.00;;
71959;SDS011;59832;51.146;14.024;2024-01-07T08:45:32;13.07;;;10.70;;
71959;SDS011;59832;51.146;14.024;2024-01-07T08:47:59;7.30;;;4.60;;
71959;SDS011;59832;51.146;14.024;2024-01-07T08:50:26;14.65;;;12.18;;
71959;SDS011;59832;51.146;14.024;2024-01-07T08:52:52;7.70;;;5.15;;
71959;SDS011;59832;51.146;14.024;2024-01-07T08:55:19;9.68;;;7.63;;
71959;SDS011;59832;51.146;14.024;2024-01-07T08:57:45;7.13;;;4.30;;
71959;SDS011;59832;51.146;14.024;2024-01-07T09:00:15;10.07;;;4.40;;
71959;SDS011;59832;51.146;14.024;2024-01-07T09:02:42;7.72;;;4.78;;
71959;SDS011;59832;51.146;14.024;2024-01-07T09:05:09;7.60;;;4.57;;
71959;SDS011;59832;51.146;14.024;2024-01-07T09:07:37;8.27;;;4.50;;
71959;SDS011;59832;51.146;14.024;2024-01-07T09:10:04;5.47;;;4.00;;
71959;SDS011;59832;51.146;14.024;2024-01-07T09:12:35;12.73;;;4.90;;
71959;SDS011;59832;51.146;14.024;2024-01-07T09:15:01;8.40;;;4.57;;
71959;SDS011;59832;51.146;14.024;2024-01-07T09:17:28;7.55;;;5.43;;
71959;SDS011;59832;51.146;14.024;2024-01-07T09:19:54;7.30;;;4.63;;
71959;SDS011;59832;51.146;14.024;2024-01-07T09:22:21;7.43;;;5.10;;
71959;SDS011;59832;51.146;14.024;2024-01-07T09:24:47;7.70;;;4.90;;
71959;SDS011;59832;51.146;14.024;2024-01-07T09:27:17;8.90;;;5.00;;
71959;SDS011;59832;51.146;14.024;2024-01-07T09:29:44;13.57;;;6.53;;
71959;SDS011;59832;51.146;14.024;2024-01-07T09:32:10;10.05;;;5.97;;
71959;SDS011;59832;51.146;14.024;2024-01-07T09:34:36;7.13;;;5.28;;
71959;SDS011;59832;51.146;14.024;2024-01-07T09:37:03;7.63;;;5.03;;
71959;SDS011;59832;51.146;14.024;2024-01-07T09:39:30;5.93;;;4.30;;
71959;SDS011;59832;51.146;14.024;2024-01-07T09:41:56;6.82;;;4.72;;
71959;SDS011;59832;51.146;14.024;2024-01-07T09:44:23;6.40;;;4.97;;
71959;SDS011;59832;51.146;14.024;2024-01-07T09:46:50;6.82;;;4.25;;
71959;SDS011;59832;51.146;14.024;2024-01-07T09:49:18;5.57;;;3.88;;
71959;SDS011;59832;51.146;14.024;2024-01-07T09:51:45;4.25;;;3.35;;
71959;SDS011;59832;51.146;14.024;2024-01-07T09:54:14;6.30;;;4.22;;
71959;SDS011;59832;51.146;14.024;2024-01-07T09:56:46;6.40;;;4.25;;
71959;SDS011;59832;51.146;14.024;2024-01-07T09:59:22;7.22;;;4.85;;
71959;SDS011;59832;51.146;14.024;2024-01-07T10:01:48;8.43;;;5.38;;
71959;SDS011;59832;51.146;14.024;2024-01-07T10:04:20;6.10;;;3.80;;
71959;SDS011;59832;51.146;14.024;2024-01-07T10:06:46;8.73;;;7.07;;
71959;SDS011;59832;51.146;14.024;2024-01-07T10:09:15;14.98;;;9.98;;
71959;SDS011;59832;51.146;14.024;2024-01-07T10:11:43;4.35;;;3.95;;
71959;SDS011;59832;51.146;14.024;2024-01-07T10:14:10;6.57;;;5.22;;
71959;SDS011;59832;51.146;14.024;2024-01-07T10:16:37;8.93;;;3.97;;
71959;SDS011;59832;51.146;14.024;2024-01-07T10:19:03;7.07;;;4.15;;
71959;SDS011;59832;51.146;14.024;2024-01-07T10:21:30;6.17;;;3.87;;
71959;SDS011;59832;51.146;14.024;2024-01-07T10:24:09;6.30;;;3.67;;
71959;SDS011;59832;51.146;14.024;2024-01-07T10:26:40;6.05;;;4.30;;
71959;SDS011;59832;51.146;14.024;2024-01-07T10:29:07;4.57;;;4.07;;
71959;SDS011;59832;51.146;14.024;2024-01-07T10:31:35;5.90;;;3.85;;
71959;SDS011;59832;51.146;14.024;2024-01-07T10:34:06;5.50;;;3.20;;
71959;SDS011;59832;51.146;14.024;2024-01-07T10:36:34;4.28;;;3.28;;
71959;SDS011;59832;51.146;14.024;2024-01-07T10:39:00;5.25;;;3.90;;
71959;SDS011;59832;51.146;14.024;2024-01-07T10:41:27;4.23;;;3.60;;
71959;SDS011;59832;51.146;14.024;2024-01-07T10:43:56;5.45;;;3.00;;
71959;SDS011;59832;51.146;14.024;2024-01-07T10:48:59;4.50;;;2.78;;
71959;SDS011;59832;51.146;14.024;2024-01-07T10:51:28;3.83;;;3.00;;
71959;SDS011;59832;51.146;14.024;2024-01-07T10:53:55;3.65;;;2.97;;
71959;SDS011;59832;51.146;14.024;2024-01-07T11:01:20;5.38;;;3.63;;
71959;SDS011;59832;51.146;14.024;2024-01-07T11:06:42;3.50;;;2.80;;
71959;SDS011;59832;51.146;14.024;2024-01-07T11:09:23;13.63;;;5.93;;
71959;SDS011;59832;51.146;14.024;2024-01-07T11:11:58;6.07;;;2.72;;
71959;SDS011;59832;51.146;14.024;2024-01-07T11:14:38;3.58;;;2.30;;
71959;SDS011;59832;51.146;14.024;2024-01-07T11:17:06;5.15;;;2.58;;
71959;SDS011;59832;51.146;14.024;2024-01-07T11:19:35;4.03;;;2.42;;
71959;SDS011;59832;51.146;14.024;2024-01-07T11:24:51;77.22;;;27.48;;
71959;SDS011;59832;51.146;14.024;2024-01-07T11:27:18;4.30;;;2.63;;
71959;SDS011;59832;51.146;14.024;2024-01-07T11:29:51;7.47;;;2.83;;
71959;SDS011;59832;51.146;14.024;2024-01-07T11:32:20;5.53;;;3.47;;
71959;SDS011;59832;51.146;14.024;2024-01-07T11:34:48;11.35;;;5.90;;
71959;SDS011;59832;51.146;14.024;2024-01-07T11:37:18;4.72;;;3.63;;
71959;SDS011;59832;51.146;14.024;2024-01-07T11:39:45;6.82;;;4.35;;
71959;SDS011;59832;51.146;14.024;2024-01-07T11:42:13;9.02;;;3.20;;
71959;SDS011;59832;51.146;14.024;2024-01-07T11:44:52;5.20;;;3.35;;
71959;SDS011;59832;51.146;14.024;2024-01-07T11:47:20;4.03;;;3.17;;
71959;SDS011;59832;51.146;14.024;2024-01-07T11:49:48;4.32;;;3.58;;
71959;SDS011;59832;51.146;14.024;2024-01-07T11:52:15;4.80;;;3.28;;
71959;SDS011;59832;51.146;14.024;2024-01-07T11:54:42;8.00;;;3.50;;
71959;SDS011;59832;51.146;14.024;2024-01-07T11:57:09;4.72;;;3.35;;
71959;SDS011;59832;51.146;14.024;2024-01-07T11:59:36;4.93;;;3.40;;
71959;SDS011;59832;51.146;14.024;2024-01-07T12:02:05;5.97;;;3.50;;
71959;SDS011;59832;51.146;14.024;2024-01-07T12:04:32;4.57;;;3.15;;
71959;SDS011;59832;51.146;14.024;2024-01-07T12:06:59;3.60;;;2.92;;
71959;SDS011;59832;51.146;14.024;2024-01-07T12:11:53;4.30;;;3.08;;
71959;SDS011;59832;51.146;14.024;2024-01-07T12:14:20;4.00;;;3.00;;
71959;SDS011;59832;51.146;14.024;2024-01-07T12:16:46;3.53;;;2.97;;
71959;SDS011;59832;51.146;14.024;2024-01-07T12:19:13;4.80;;;3.17;;
71959;SDS011;59832;51.146;14.024;2024-01-07T12:21:40;4.43;;;2.95;;
71959;SDS011;59832;51.146;14.024;2024-01-07T12:24:06;3.45;;;2.90;;
71959;SDS011;59832;51.146;14.024;2024-01-07T12:26:33;2.87;;;2.30;;
71959;SDS011;59832;51.146;14.024;2024-01-07T12:29:00;4.22;;;3.10;;
71959;SDS011;59832;51.146;14.024;2024-01-07T12:31:31;4.57;;;2.80;;
71959;SDS011;59832;51.146;14.024;2024-01-07T12:33:58;4.32;;;2.75;;
71959;SDS011;59832;51.146;14.024;2024-01-07T12:36:24;5.33;;;3.60;;
71959;SDS011;59832;51.146;14.024;2024-01-07T12:38:52;4.93;;;3.15;;
71959;SDS011;59832;51.146;14.024;2024-01-07T12:41:22;2.92;;;2.58;;
71959;SDS011;59832;51.146;14.024;2024-01-07T12:43:49;6.32;;;4.63;;
71959;SDS011;59832;51.146;14.024;2024-01-07T12:46:16;6.18;;;3.92;;
71959;SDS011;59832;51.146;14.024;2024-01-07T12:48:43;6.22;;;3.95;;
71959;SDS011;59832;51.146;14.024;2024-01-07T12:51:09;5.50;;;4.10;;
71959;SDS011;59832;51.146;14.024;2024-01-07T12:53:36;3.13;;;2.77;;
71959;SDS011;59832;51.146;14.024;2024-01-07T12:56:02;5.25;;;3.20;;
71959;SDS011;59832;51.146;14.024;2024-01-07T12:58:29;3.10;;;2.80;;
71959;SDS011;59832;51.146;14.024;2024-01-07T13:00:56;4.82;;;3.40;;
71959;SDS011;59832;51.146;14.024;2024-01-07T13:03:22;4.07;;;3.17;;
71959;SDS011;59832;51.146;14.024;2024-01-07T13:05:51;4.28;;;2.75;;
71959;SDS011;59832;51.146;14.024;2024-01-07T13:08:17;3.03;;;2.35;;
71959;SDS011;59832;51.146;14.024;2024-01-07T13:10:45;4.15;;;2.80;;
71959;SDS011;59832;51.146;14.024;2024-01-07T13:13:12;3.55;;;2.88;;
71959;SDS011;59832;51.146;14.024;2024-01-07T13:15:41;4.15;;;2.70;;
71959;SDS011;59832;51.146;14.024;2024-01-07T13:18:09;4.40;;;3.25;;
71959;SDS011;59832;51.146;14.024;2024-01-07T13:20:38;3.92;;;2.72;;
71959;SDS011;59832;51.146;14.024;2024-01-07T13:23:07;7.22;;;6.18;;
71959;SDS011;59832;51.146;14.024;2024-01-07T13:25:34;3.67;;;2.38;;
71959;SDS011;59832;51.146;14.024;2024-01-07T13:28:00;2.80;;;2.50;;
71959;SDS011;59832;51.146;14.024;2024-01-07T13:30:27;4.75;;;2.53;;
71959;SDS011;59832;51.146;14.024;2024-01-07T13:32:54;4.05;;;3.65;;
71959;SDS011;59832;51.146;14.024;2024-01-07T13:35:24;4.07;;;2.95;;
71959;SDS011;59832;51.146;14.024;2024-01-07T13:37:51;2.67;;;2.47;;
71959;SDS011;59832;51.146;14.024;2024-01-07T13:40:18;3.97;;;3.40;;
71959;SDS011;59832;51.146;14.024;2024-01-07T13:42:45;2.63;;;2.38;;
71959;SDS011;59832;51.146;14.024;2024-01-07T13:45:12;3.08;;;2.67;;
71959;SDS011;59832;51.146;14.024;2024-01-07T13:47:40;3.20;;;2.60;;
71959;SDS011;59832;51.146;14.024;2024-01-07T13:50:06;4.18;;;2.63;;
71959;SDS011;59832;51.146;14.024;2024-01-07T13:52:36;3.50;;;2.53;;
71959;SDS011;59832;51.146;14.024;2024-01-07T13:55:02;3.50;;;2.38;;
71959;SDS011;59832;51.146;14.024;2024-01-07T13:57:30;2.90;;;2.60;;
71959;SDS011;59832;51.146;14.024;2024-01-07T13:59:57;2.70;;;2.30;;
71959;SDS011;59832;51.146;14.024;2024-01-07T14:02:23;3.47;;;2.30;;
71959;SDS011;59832;51.146;14.024;2024-01-07T14:04:50;3.95;;;2.60;;
71959;SDS011;59832;51.146;14.024;2024-01-07T14:09:46;3.22;;;2.40;;
71959;SDS011;59832;51.146;14.024;2024-01-07T14:12:13;4.50;;;2.47;;
71959;SDS011;59832;51.146;14.024;2024-01-07T14:14:40;4.00;;;2.55;;
71959;SDS011;59832;51.146;14.024;2024-01-07T14:17:06;3.50;;;2.55;;
71959;SDS011;59832;51.146;14.024;2024-01-07T14:19:33;2.50;;;2.30;;
71959;SDS011;59832;51.146;14.024;2024-01-07T14:21:59;3.50;;;2.70;;
71959;SDS011;59832;51.146;14.024;2024-01-07T14:24:27;3.67;;;2.70;;
71959;SDS011;59832;51.146;14.024;2024-01-07T14:26:53;4.40;;;3.22;;
71959;SDS011;59832;51.146;14.024;2024-01-07T14:29:24;3.88;;;2.60;;
71959;SDS011;59832;51.146;14.024;2024-01-07T14:31:50;3.63;;;2.67;;
71959;SDS011;59832;51.146;14.024;2024-01-07T14:34:17;4.80;;;2.73;;
71959;SDS011;59832;51.146;14.024;2024-01-07T14:36:43;3.70;;;2.73;;
71959;SDS011;59832;51.146;14.024;2024-01-07T14:39:10;2.88;;;2.42;;
71959;SDS011;59832;51.146;14.024;2024-01-07T14:41:39;4.85;;;2.58;;
71959;SDS011;59832;51.146;14.024;2024-01-07T14:44:08;3.67;;;2.80;;